UAE69M OMDB-VIDP
Flight info
| Callsign | UAE69M |
|---|---|
| Flight time | N/A |
| Altitude | 41000 |
| Route | IVURO M428 MUNGA A777 VAXIM L301 RASKI L639 LAXOM J61 UUD A347 BUBNU BUBNU7H |
| Aircraft | A359/H-SDE2E3GHIJ3J4J5LM1ORWXY/LB1D1 |
Departure
| Time | N/A |
|---|---|
| Airport | Dubai International Airport (OMDB) |
Arrival
| Time | 2026-05-06 20:11 |
|---|---|
| Airport | Indira Gandhi International Airport (VIDP) |
| Time | Latitude | Longitude | Altitude | Speed | Heading |
|---|---|---|---|---|---|
| 2026-05-06 18:54 | 23.20748 | 71.49360 | 40772 ft | 514 kts | 53° |
| 2026-05-06 18:55 | 23.24516 | 71.55638 | 40765 ft | 514 kts | 52° |
| 2026-05-06 18:55 | 23.28451 | 71.62202 | 40767 ft | 514 kts | 52° |
| 2026-05-06 18:56 | 23.32332 | 71.68686 | 40767 ft | 515 kts | 52° |
| 2026-05-06 18:56 | 23.36234 | 71.75213 | 40760 ft | 515 kts | 52° |
| 2026-05-06 18:57 | 23.40128 | 71.81735 | 40762 ft | 515 kts | 52° |
| 2026-05-06 18:57 | 23.44033 | 71.88283 | 40760 ft | 515 kts | 52° |
| 2026-05-06 18:58 | 23.47931 | 71.94828 | 40756 ft | 515 kts | 52° |
| 2026-05-06 18:58 | 23.51827 | 72.01380 | 40757 ft | 515 kts | 52° |
| 2026-05-06 18:59 | 23.55727 | 72.07945 | 40756 ft | 515 kts | 52° |
| 2026-05-06 18:59 | 23.59615 | 72.14499 | 40757 ft | 516 kts | 52° |
| 2026-05-06 19:00 | 23.63507 | 72.21070 | 40753 ft | 516 kts | 52° |
| 2026-05-06 19:00 | 23.67376 | 72.27608 | 40751 ft | 516 kts | 52° |
| 2026-05-06 19:01 | 23.71292 | 72.34236 | 40757 ft | 517 kts | 52° |
| 2026-05-06 19:01 | 23.74127 | 72.39038 | 40757 ft | 517 kts | 52° |
| 2026-05-06 19:02 | 23.76831 | 72.43625 | 40756 ft | 517 kts | 52° |
| 2026-05-06 19:02 | 23.80723 | 72.50231 | 40766 ft | 517 kts | 52° |
| 2026-05-06 19:03 | 23.84617 | 72.56852 | 40769 ft | 518 kts | 52° |
| 2026-05-06 19:03 | 23.88524 | 72.63503 | 40768 ft | 518 kts | 52° |
| 2026-05-06 19:04 | 23.92372 | 72.70062 | 40766 ft | 518 kts | 52° |
| 2026-05-06 19:04 | 23.96262 | 72.76702 | 40772 ft | 518 kts | 52° |
| 2026-05-06 19:05 | 24.00150 | 72.83345 | 40779 ft | 519 kts | 52° |
| 2026-05-06 19:05 | 24.04027 | 72.89980 | 40778 ft | 519 kts | 52° |
| 2026-05-06 19:06 | 24.07920 | 72.96652 | 40783 ft | 519 kts | 52° |
| 2026-05-06 19:06 | 24.11801 | 73.03313 | 40790 ft | 519 kts | 52° |
| 2026-05-06 19:07 | 24.15686 | 73.09988 | 40791 ft | 520 kts | 52° |
| 2026-05-06 19:07 | 24.19561 | 73.16656 | 40797 ft | 520 kts | 52° |
| 2026-05-06 19:08 | 24.23337 | 73.23162 | 40809 ft | 520 kts | 52° |
| 2026-05-06 19:08 | 24.27217 | 73.29855 | 40799 ft | 520 kts | 52° |
| 2026-05-06 19:09 | 24.31084 | 73.36536 | 40806 ft | 520 kts | 52° |
| 2026-05-06 19:09 | 24.34724 | 73.42833 | 40814 ft | 521 kts | 52° |
| 2026-05-06 19:10 | 24.38444 | 73.49274 | 40813 ft | 521 kts | 52° |
| 2026-05-06 19:10 | 24.42285 | 73.55938 | 40816 ft | 521 kts | 52° |
| 2026-05-06 19:11 | 24.46142 | 73.62639 | 40814 ft | 521 kts | 52° |
| 2026-05-06 19:11 | 24.50011 | 73.69369 | 40815 ft | 522 kts | 52° |
| 2026-05-06 19:12 | 24.53903 | 73.76148 | 40811 ft | 522 kts | 52° |
| 2026-05-06 19:12 | 24.57758 | 73.82873 | 40810 ft | 522 kts | 52° |
| 2026-05-06 19:13 | 24.62161 | 73.89078 | 40807 ft | 507 kts | 36° |
| 2026-05-06 19:13 | 24.64896 | 73.91469 | 40810 ft | 496 kts | 26° |
| 2026-05-06 19:13 | 24.67831 | 73.93434 | 40802 ft | 493 kts | 22° |
| 2026-05-06 19:14 | 24.73763 | 73.97185 | 40805 ft | 494 kts | 22° |
| 2026-05-06 19:14 | 24.79744 | 74.00980 | 40804 ft | 494 kts | 22° |
| 2026-05-06 19:15 | 24.85694 | 74.04765 | 40801 ft | 494 kts | 22° |
| 2026-05-06 19:15 | 24.91623 | 74.08544 | 40799 ft | 494 kts | 22° |
| 2026-05-06 19:16 | 24.97588 | 74.12350 | 40795 ft | 494 kts | 22° |
| 2026-05-06 19:16 | 25.03544 | 74.16155 | 40788 ft | 494 kts | 22° |
| 2026-05-06 19:17 | 25.09492 | 74.19959 | 40798 ft | 495 kts | 22° |
| 2026-05-06 19:17 | 25.15451 | 74.23774 | 40799 ft | 495 kts | 22° |
| 2026-05-06 19:18 | 25.20401 | 74.26946 | 40795 ft | 495 kts | 22° |
| 2026-05-06 19:18 | 25.26348 | 74.30762 | 40791 ft | 495 kts | 22° |
| 2026-05-06 19:19 | 25.33270 | 74.35208 | 40793 ft | 495 kts | 22° |
| 2026-05-06 19:19 | 25.39228 | 74.39041 | 40792 ft | 495 kts | 22° |
| 2026-05-06 19:20 | 25.45174 | 74.42869 | 40791 ft | 495 kts | 22° |
| 2026-05-06 19:20 | 25.50113 | 74.46053 | 40787 ft | 495 kts | 23° |
| 2026-05-06 19:21 | 25.56017 | 74.49862 | 40784 ft | 495 kts | 23° |
| 2026-05-06 19:21 | 25.61961 | 74.53703 | 40789 ft | 495 kts | 23° |
| 2026-05-06 19:22 | 25.67925 | 74.57560 | 40786 ft | 495 kts | 23° |
| 2026-05-06 19:22 | 25.73893 | 74.61424 | 40786 ft | 495 kts | 23° |
| 2026-05-06 19:23 | 25.79832 | 74.65275 | 40782 ft | 495 kts | 23° |
| 2026-05-06 19:23 | 25.85768 | 74.69128 | 40780 ft | 495 kts | 23° |
| 2026-05-06 19:24 | 25.91725 | 74.72999 | 40784 ft | 495 kts | 23° |
| 2026-05-06 19:24 | 25.97672 | 74.76868 | 40784 ft | 495 kts | 23° |
| 2026-05-06 19:25 | 26.03624 | 74.80744 | 40779 ft | 496 kts | 23° |
| 2026-05-06 19:25 | 26.09489 | 74.84569 | 40786 ft | 497 kts | 23° |
| 2026-05-06 19:26 | 26.15417 | 74.88439 | 40784 ft | 497 kts | 23° |
| 2026-05-06 19:26 | 26.21388 | 74.92342 | 40785 ft | 498 kts | 23° |
| 2026-05-06 19:27 | 26.27361 | 74.96252 | 40783 ft | 499 kts | 23° |
| 2026-05-06 19:27 | 26.33347 | 75.00174 | 40784 ft | 499 kts | 23° |
| 2026-05-06 19:28 | 26.39367 | 75.03990 | 40682 ft | 494 kts | 18° |
| 2026-05-06 19:28 | 26.42584 | 75.05363 | 40211 ft | 483 kts | 8° |
| 2026-05-06 19:28 | 26.45795 | 75.06068 | 39545 ft | 474 kts | 359° |
| 2026-05-06 19:28 | 26.49020 | 75.06176 | 38840 ft | 468 kts | 350° |
| 2026-05-06 19:29 | 26.51933 | 75.05812 | 38175 ft | 464 kts | 345° |
| 2026-05-06 19:29 | 26.55132 | 75.05235 | 37353 ft | 466 kts | 344° |
| 2026-05-06 19:29 | 26.58343 | 75.04645 | 36560 ft | 468 kts | 345° |
| 2026-05-06 19:29 | 26.61549 | 75.04060 | 35804 ft | 469 kts | 345° |
| 2026-05-06 19:30 | 26.64789 | 75.03473 | 35060 ft | 470 kts | 345° |
| 2026-05-06 19:30 | 26.68016 | 75.02891 | 34341 ft | 471 kts | 345° |
| 2026-05-06 19:30 | 26.71245 | 75.02309 | 33671 ft | 470 kts | 345° |
| 2026-05-06 19:30 | 26.74476 | 75.01727 | 32948 ft | 468 kts | 345° |
| 2026-05-06 19:31 | 26.77664 | 75.01152 | 32222 ft | 467 kts | 346° |
| 2026-05-06 19:31 | 26.80889 | 75.00570 | 31554 ft | 465 kts | 346° |
| 2026-05-06 19:31 | 26.87228 | 74.99427 | 30376 ft | 459 kts | 347° |
| 2026-05-06 19:32 | 26.90380 | 74.98858 | 29969 ft | 453 kts | 347° |
| 2026-05-06 19:32 | 26.93467 | 74.98383 | 29807 ft | 443 kts | 351° |
| 2026-05-06 19:32 | 26.96477 | 74.98336 | 29792 ft | 432 kts | 359° |
| 2026-05-06 19:32 | 26.99442 | 74.98802 | 29797 ft | 422 kts | 8° |
| 2026-05-06 19:33 | 27.04847 | 75.01018 | 29792 ft | 411 kts | 19° |
| 2026-05-06 19:33 | 27.10055 | 75.03718 | 29782 ft | 413 kts | 19° |
| 2026-05-06 19:34 | 27.15263 | 75.06417 | 29776 ft | 413 kts | 19° |
| 2026-05-06 19:34 | 27.20496 | 75.09131 | 29787 ft | 413 kts | 20° |
| 2026-05-06 19:35 | 27.25722 | 75.11843 | 29779 ft | 413 kts | 20° |
| 2026-05-06 19:35 | 27.30938 | 75.14552 | 29787 ft | 413 kts | 20° |
| 2026-05-06 19:36 | 27.36143 | 75.17258 | 29786 ft | 412 kts | 20° |
| 2026-05-06 19:36 | 27.41343 | 75.19965 | 29785 ft | 412 kts | 20° |
| 2026-05-06 19:37 | 27.46544 | 75.22675 | 29778 ft | 412 kts | 20° |
| 2026-05-06 19:37 | 27.49177 | 75.24044 | 29736 ft | 425 kts | 20° |
| 2026-05-06 19:37 | 27.51914 | 75.25465 | 29663 ft | 440 kts | 20° |
| 2026-05-06 19:38 | 27.56957 | 75.29354 | 29323 ft | 444 kts | 40° |
| 2026-05-06 19:38 | 27.59131 | 75.31897 | 28858 ft | 444 kts | 41° |
| 2026-05-06 19:38 | 27.61257 | 75.34399 | 28577 ft | 446 kts | 41° |
| 2026-05-06 19:39 | 27.63370 | 75.36871 | 28216 ft | 440 kts | 41° |
| 2026-05-06 19:39 | 27.65501 | 75.39357 | 27752 ft | 437 kts | 41° |
| 2026-05-06 19:39 | 27.67608 | 75.41809 | 27261 ft | 435 kts | 41° |
| 2026-05-06 19:39 | 27.69420 | 75.43916 | 26814 ft | 433 kts | 41° |
| 2026-05-06 19:40 | 27.71538 | 75.46381 | 26346 ft | 430 kts | 41° |
| 2026-05-06 19:40 | 27.73571 | 75.48747 | 25848 ft | 428 kts | 41° |
| 2026-05-06 19:40 | 27.75649 | 75.51165 | 25367 ft | 427 kts | 41° |
| 2026-05-06 19:40 | 27.77702 | 75.53554 | 24865 ft | 425 kts | 41° |
| 2026-05-06 19:41 | 27.79761 | 75.55953 | 24379 ft | 423 kts | 41° |
| 2026-05-06 19:41 | 27.81804 | 75.58334 | 23860 ft | 422 kts | 41° |
| 2026-05-06 19:41 | 27.83843 | 75.60713 | 23364 ft | 420 kts | 41° |
| 2026-05-06 19:41 | 27.85875 | 75.63085 | 22795 ft | 418 kts | 41° |
| 2026-05-06 19:42 | 27.87884 | 75.65433 | 22288 ft | 414 kts | 41° |
| 2026-05-06 19:42 | 27.89868 | 75.67751 | 21788 ft | 410 kts | 41° |
| 2026-05-06 19:42 | 27.91841 | 75.70058 | 21295 ft | 406 kts | 41° |
| 2026-05-06 19:42 | 27.93799 | 75.72349 | 20791 ft | 403 kts | 41° |
| 2026-05-06 19:43 | 27.95739 | 75.74619 | 20301 ft | 399 kts | 41° |
| 2026-05-06 19:43 | 27.97661 | 75.76868 | 19807 ft | 396 kts | 41° |
| 2026-05-06 19:43 | 27.99563 | 75.79097 | 19322 ft | 393 kts | 41° |
| 2026-05-06 19:43 | 28.01459 | 75.81320 | 18831 ft | 390 kts | 41° |
| 2026-05-06 19:44 | 28.03325 | 75.83510 | 18355 ft | 387 kts | 41° |
| 2026-05-06 19:44 | 28.05193 | 75.85701 | 17846 ft | 384 kts | 41° |
| 2026-05-06 19:44 | 28.07039 | 75.87864 | 17335 ft | 380 kts | 41° |
| 2026-05-06 19:44 | 28.08870 | 75.90000 | 16858 ft | 376 kts | 41° |
| 2026-05-06 19:45 | 28.10685 | 75.92122 | 16402 ft | 372 kts | 41° |
| 2026-05-06 19:45 | 28.12444 | 75.94188 | 16262 ft | 359 kts | 41° |
| 2026-05-06 19:45 | 28.14143 | 75.96187 | 16161 ft | 346 kts | 40° |
| 2026-05-06 19:45 | 28.15756 | 75.98088 | 16014 ft | 334 kts | 40° |
| 2026-05-06 19:46 | 28.17342 | 75.99958 | 15894 ft | 323 kts | 40° |
| 2026-05-06 19:46 | 28.18872 | 76.01761 | 15739 ft | 313 kts | 40° |
| 2026-05-06 19:46 | 28.20367 | 76.03525 | 15550 ft | 306 kts | 40° |
| 2026-05-06 19:46 | 28.21830 | 76.05248 | 15244 ft | 303 kts | 40° |
| 2026-05-06 19:47 | 28.23354 | 76.06862 | 14926 ft | 296 kts | 29° |
| 2026-05-06 19:47 | 28.25163 | 76.07771 | 14803 ft | 279 kts | 4° |
| 2026-05-06 19:47 | 28.27035 | 76.07726 | 14771 ft | 268 kts | 341° |
| 2026-05-06 19:47 | 28.28697 | 76.06850 | 14779 ft | 263 kts | 320° |
| 2026-05-06 19:48 | 28.29915 | 76.05338 | 14771 ft | 260 kts | 300° |
| 2026-05-06 19:48 | 28.30520 | 76.03425 | 14771 ft | 263 kts | 279° |
| 2026-05-06 19:48 | 28.30441 | 76.01332 | 14770 ft | 268 kts | 259° |
| 2026-05-06 19:48 | 28.29632 | 75.99420 | 14786 ft | 277 kts | 237° |
| 2026-05-06 19:49 | 28.28307 | 75.97797 | 14770 ft | 282 kts | 229° |
| 2026-05-06 19:49 | 28.26890 | 75.96239 | 14768 ft | 284 kts | 230° |
| 2026-05-06 19:49 | 28.25501 | 75.94658 | 14780 ft | 283 kts | 231° |
| 2026-05-06 19:49 | 28.24119 | 75.93058 | 14766 ft | 284 kts | 231° |
| 2026-05-06 19:50 | 28.22635 | 75.91561 | 14780 ft | 289 kts | 220° |
| 2026-05-06 19:50 | 28.20750 | 75.90690 | 14701 ft | 300 kts | 194° |
| 2026-05-06 19:50 | 28.18652 | 75.90891 | 14318 ft | 312 kts | 163° |
| 2026-05-06 19:50 | 28.16815 | 75.92199 | 13952 ft | 319 kts | 135° |
| 2026-05-06 19:51 | 28.15676 | 75.94288 | 13586 ft | 319 kts | 106° |
| 2026-05-06 19:51 | 28.15499 | 75.96773 | 13219 ft | 310 kts | 75° |
| 2026-05-06 19:51 | 28.16304 | 75.98994 | 13079 ft | 298 kts | 48° |
| 2026-05-06 19:51 | 28.17660 | 76.00697 | 12955 ft | 293 kts | 38° |
| 2026-05-06 19:52 | 28.19122 | 76.02304 | 12827 ft | 294 kts | 38° |
| 2026-05-06 19:52 | 28.20584 | 76.03932 | 12708 ft | 294 kts | 39° |
| 2026-05-06 19:52 | 28.22030 | 76.05561 | 12566 ft | 294 kts | 39° |
| 2026-05-06 19:52 | 28.23358 | 76.07341 | 12325 ft | 298 kts | 50° |
| 2026-05-06 19:53 | 28.24343 | 76.09428 | 12096 ft | 301 kts | 61° |
| 2026-05-06 19:53 | 28.25180 | 76.11515 | 11852 ft | 301 kts | 61° |
| 2026-05-06 19:53 | 28.26068 | 76.13668 | 11611 ft | 300 kts | 60° |
| 2026-05-06 19:53 | 28.26974 | 76.15794 | 11373 ft | 299 kts | 60° |
| 2026-05-06 19:54 | 28.27889 | 76.17905 | 11133 ft | 298 kts | 60° |
| 2026-05-06 19:54 | 28.28812 | 76.20010 | 10893 ft | 297 kts | 60° |
| 2026-05-06 19:54 | 28.29731 | 76.22094 | 10671 ft | 297 kts | 59° |
| 2026-05-06 19:54 | 28.30656 | 76.24189 | 10430 ft | 296 kts | 60° |
| 2026-05-06 19:55 | 28.31571 | 76.26264 | 10186 ft | 295 kts | 60° |
| 2026-05-06 19:55 | 28.32492 | 76.28353 | 9952 ft | 295 kts | 60° |
| 2026-05-06 19:56 | 28.35257 | 76.34621 | 9779 ft | 294 kts | 60° |
| 2026-05-06 19:56 | 28.36165 | 76.36681 | 9778 ft | 285 kts | 60° |
| 2026-05-06 19:56 | 28.37026 | 76.38640 | 9782 ft | 272 kts | 59° |
| 2026-05-06 19:56 | 28.37866 | 76.40541 | 9786 ft | 269 kts | 59° |
| 2026-05-06 19:57 | 28.38702 | 76.42439 | 9701 ft | 266 kts | 60° |
| 2026-05-06 19:57 | 28.39529 | 76.44317 | 9372 ft | 267 kts | 60° |
| 2026-05-06 19:57 | 28.40356 | 76.46195 | 9083 ft | 265 kts | 60° |
| 2026-05-06 19:57 | 28.41175 | 76.48058 | 8806 ft | 263 kts | 60° |
| 2026-05-06 19:58 | 28.41977 | 76.49881 | 8511 ft | 261 kts | 60° |
| 2026-05-06 19:58 | 28.42761 | 76.51663 | 8238 ft | 259 kts | 61° |
| 2026-05-06 19:58 | 28.43578 | 76.53524 | 7954 ft | 258 kts | 61° |
| 2026-05-06 19:58 | 28.44375 | 76.55339 | 7697 ft | 255 kts | 61° |
| 2026-05-06 19:59 | 28.45143 | 76.57088 | 7437 ft | 253 kts | 62° |
| 2026-05-06 19:59 | 28.45423 | 76.57726 | 7337 ft | 253 kts | 62° |
| 2026-05-06 20:00 | 28.46014 | 76.59074 | 7130 ft | 251 kts | 62° |
| 2026-05-06 20:00 | 28.46788 | 76.60842 | 6875 ft | 249 kts | 62° |
| 2026-05-06 20:00 | 28.47553 | 76.62593 | 6606 ft | 246 kts | 62° |
| 2026-05-06 20:00 | 28.48312 | 76.64324 | 6341 ft | 244 kts | 62° |
| 2026-05-06 20:01 | 28.49065 | 76.66043 | 6059 ft | 239 kts | 62° |
| 2026-05-06 20:01 | 28.49778 | 76.67675 | 5878 ft | 229 kts | 62° |
| 2026-05-06 20:01 | 28.50483 | 76.69289 | 5644 ft | 223 kts | 62° |
| 2026-05-06 20:01 | 28.51156 | 76.70829 | 5367 ft | 220 kts | 63° |
| 2026-05-06 20:02 | 28.51837 | 76.72387 | 5053 ft | 218 kts | 63° |
| 2026-05-06 20:02 | 28.52548 | 76.73899 | 4733 ft | 215 kts | 56° |
| 2026-05-06 20:02 | 28.53585 | 76.75047 | 4585 ft | 204 kts | 31° |
| 2026-05-06 20:02 | 28.54872 | 76.75613 | 4448 ft | 194 kts | 15° |
| 2026-05-06 20:03 | 28.55751 | 76.75823 | 4233 ft | 192 kts | 5° |
| 2026-05-06 20:03 | 28.57454 | 76.75841 | 3846 ft | 190 kts | 358° |
| 2026-05-06 20:03 | 28.58347 | 76.75877 | 3522 ft | 189 kts | 8° |
| 2026-05-06 20:03 | 28.59833 | 76.76842 | 3001 ft | 187 kts | 41° |
| 2026-05-06 20:04 | 28.60411 | 76.77552 | 2842 ft | 182 kts | 54° |
| 2026-05-06 20:04 | 28.60778 | 76.78853 | 2607 ft | 175 kts | 95° |
| 2026-05-06 20:04 | 28.60458 | 76.80144 | 2428 ft | 163 kts | 108° |
| 2026-05-06 20:04 | 28.60114 | 76.81353 | 2397 ft | 160 kts | 105° |
| 2026-05-06 20:05 | 28.59824 | 76.82575 | 2536 ft | 164 kts | 103° |
| 2026-05-06 20:05 | 28.59545 | 76.83862 | 2594 ft | 166 kts | 103° |
| 2026-05-06 20:05 | 28.59275 | 76.85140 | 2590 ft | 166 kts | 103° |
| 2026-05-06 20:05 | 28.59062 | 76.86156 | 2600 ft | 166 kts | 102° |
| 2026-05-06 20:06 | 28.58804 | 76.87387 | 2610 ft | 167 kts | 103° |
| 2026-05-06 20:06 | 28.58535 | 76.88664 | 2608 ft | 166 kts | 103° |
| 2026-05-06 20:06 | 28.58263 | 76.89946 | 2607 ft | 166 kts | 103° |
| 2026-05-06 20:06 | 28.57990 | 76.91222 | 2608 ft | 166 kts | 103° |
| 2026-05-06 20:07 | 28.57719 | 76.92493 | 2605 ft | 166 kts | 103° |
| 2026-05-06 20:07 | 28.57450 | 76.93759 | 2616 ft | 166 kts | 103° |
| 2026-05-06 20:07 | 28.57172 | 76.95053 | 2611 ft | 167 kts | 103° |
| 2026-05-06 20:07 | 28.56899 | 76.96332 | 2588 ft | 167 kts | 103° |
| 2026-05-06 20:08 | 28.56621 | 76.97623 | 2400 ft | 165 kts | 103° |
| 2026-05-06 20:08 | 28.56378 | 76.98771 | 2207 ft | 153 kts | 103° |
| 2026-05-06 20:08 | 28.56139 | 76.99890 | 2040 ft | 140 kts | 103° |
| 2026-05-06 20:08 | 28.55916 | 77.00938 | 1871 ft | 134 kts | 104° |
| 2026-05-06 20:09 | 28.55694 | 77.01976 | 1703 ft | 137 kts | 104° |
| 2026-05-06 20:09 | 28.55485 | 77.02957 | 1519 ft | 135 kts | 103° |
| 2026-05-06 20:09 | 28.55264 | 77.03990 | 1352 ft | 135 kts | 104° |
| 2026-05-06 20:09 | 28.55045 | 77.05013 | 1164 ft | 135 kts | 103° |
| 2026-05-06 20:10 | 28.54821 | 77.06059 | 986 ft | 135 kts | 102° |
| 2026-05-06 20:10 | 28.54603 | 77.07092 | 825 ft | 134 kts | 102° |
| 2026-05-06 20:10 | 28.54401 | 77.08080 | 780 ft | 120 kts | 102° |
| 2026-05-06 20:10 | 28.54235 | 77.08854 | 780 ft | 80 kts | 105° |
| 2026-05-06 20:11 | 28.54144 | 77.09317 | 778 ft | 40 kts | 90° |
| 2026-05-06 20:11 | 28.54169 | 77.09490 | 778 ft | 10 kts | 77° |
| 2026-05-06 20:11 | 28.54172 | 77.09505 | 778 ft | 5 kts | 77° |
| 2026-05-06 20:11 | 28.54202 | 77.09613 | 779 ft | 19 kts | 68° |
| 2026-05-06 20:12 | 28.54270 | 77.09703 | 779 ft | 15 kts | 19° |
| 2026-05-06 20:12 | 28.54341 | 77.09726 | 780 ft | 9 kts | 15° |
| 2026-05-06 20:12 | 28.54371 | 77.09735 | 780 ft | 1 kts | 15° |
| 2026-05-06 20:13 | 28.54372 | 77.09735 | 780 ft | 1 kts | 15° |
| 2026-05-06 20:13 | 28.54388 | 77.09740 | 780 ft | 4 kts | 15° |
| 2026-05-06 20:13 | 28.54425 | 77.09752 | 780 ft | 7 kts | 15° |
| 2026-05-06 20:13 | 28.54475 | 77.09762 | 780 ft | 6 kts | 7° |
| 2026-05-06 20:14 | 28.54536 | 77.09774 | 780 ft | 10 kts | 10° |
| 2026-05-06 20:14 | 28.54607 | 77.09789 | 780 ft | 8 kts | 3° |
| 2026-05-06 20:14 | 28.54661 | 77.09763 | 780 ft | 10 kts | 312° |
| 2026-05-06 20:14 | 28.54685 | 77.09683 | 780 ft | 13 kts | 285° |
| 2026-05-06 20:15 | 28.54710 | 77.09564 | 780 ft | 17 kts | 283° |
| 2026-05-06 20:15 | 28.54744 | 77.09427 | 780 ft | 18 kts | 284° |
| 2026-05-06 20:15 | 28.54773 | 77.09296 | 780 ft | 14 kts | 284° |
| 2026-05-06 20:15 | 28.54800 | 77.09175 | 780 ft | 17 kts | 284° |
| 2026-05-06 20:16 | 28.54831 | 77.09037 | 780 ft | 16 kts | 286° |
| 2026-05-06 20:16 | 28.54860 | 77.08915 | 780 ft | 16 kts | 283° |
| 2026-05-06 20:16 | 28.54896 | 77.08824 | 780 ft | 11 kts | 314° |
| 2026-05-06 20:16 | 28.54957 | 77.08795 | 780 ft | 11 kts | 336° |
| 2026-05-06 20:17 | 28.55029 | 77.08757 | 780 ft | 10 kts | 337° |
| 2026-05-06 20:17 | 28.55061 | 77.08763 | 780 ft | 4 kts | 34° |
| 2026-05-06 20:17 | 28.55081 | 77.08791 | 780 ft | 3 kts | 56° |
| 2026-05-06 20:17 | 28.55084 | 77.08797 | 780 ft | 0 kts | 57° |